Time;durP1;ratioP1;P1;durP2;ratioP2;P2;SDS_P1;SDS_P2;PMS_P1;PMS_P2;Temp;Humidity;BMP_temperature;BMP_pressure;BME280_temperature;BME280_humidity;BME280_pressure;Samples;Min_cycle;Max_cycle;Signal;HPM_P1;HPM_P2
2023/05/05 00:09:18;;;;;;;8.20;5.30;;;;;;;9.38;44.51;100048.94;436963;1251;139095;-58
2023/05/05 00:19:24;;;;;;;9.60;6.40;;;;;;;9.26;45.39;100051.44;436292;1256;138452;-59
2023/05/05 00:29:30;;;;;;;13.40;6.40;;;;;;;9.25;45.17;100034.72;436719;1251;140079;-58
2023/05/05 00:39:35;;;;;;;9.60;6.00;;;;;;;9.32;45.52;100030.33;436416;1256;138808;-58
2023/05/05 00:49:41;;;;;;;6.70;5.10;;;;;;;9.38;45.51;100028.65;436542;1250;139459;-58
2023/05/05 00:59:49;;;;;;;10.50;5.90;;;;;;;9.33;45.71;100022.45;436180;1256;140006;-58
2023/05/05 01:10:02;;;;;;;9.50;6.00;;;;;;;9.23;46.40;100020.00;436367;1255;140205;-61
2023/05/05 01:20:29;;;;;;;6.90;5.30;;;;;;;9.16;46.57;100017.19;436690;1256;138483;-60
2023/05/05 01:31:02;;;;;;;7.60;5.80;;;;;;;9.06;47.48;100005.15;436708;1250;138773;-61
2023/05/05 01:41:14;;;;;;;9.00;5.80;;;;;;;8.96;47.45;100004.27;436293;1251;139589;-61
2023/05/05 01:51:23;;;;;;;9.00;6.80;;;;;;;8.82;48.02;100004.23;436023;1254;138874;-59
2023/05/05 02:01:30;;;;;;;9.90;7.10;;;;;;;8.75;48.35;100004.08;436753;1255;139118;-61
2023/05/05 02:11:36;;;;;;;7.90;6.50;;;;;;;8.67;49.18;99995.58;437132;1255;138861;-60
2023/05/05 02:21:42;;;;;;;8.50;6.20;;;;;;;8.56;49.66;99999.08;436348;1254;138361;-59
2023/05/05 02:32:01;;;;;;;9.70;7.30;;;;;;;8.41;50.23;99995.75;436307;1254;138282;-59
2023/05/05 02:42:08;;;;;;;10.50;7.30;;;;;;;8.33;51.05;99990.17;437387;1255;139245;-60
2023/05/05 02:52:14;;;;;;;8.70;6.40;;;;;;;8.24;51.57;99990.95;436290;1256;139925;-59
2023/05/05 03:02:27;;;;;;;9.70;6.70;;;;;;;8.05;51.92;99992.73;436557;1251;141903;-59
2023/05/05 03:12:39;;;;;;;11.50;7.50;;;;;;;8.02;52.50;99995.45;436141;1256;139515;-60
2023/05/05 03:22:46;;;;;;;11.30;7.80;;;;;;;8.10;53.10;99999.83;436094;1255;138245;-59
2023/05/05 03:32:51;;;;;;;9.60;6.90;;;;;;;8.20;52.89;100008.76;436394;1251;140497;-59
2023/05/05 03:42:57;;;;;;;9.70;7.50;;;;;;;8.35;53.09;100011.38;436200;1255;139295;-59
2023/05/05 03:53:03;;;;;;;8.30;6.40;;;;;;;8.51;53.00;100010.45;436032;1257;139936;-59
2023/05/05 04:03:08;;;;;;;10.40;7.30;;;;;;;8.72;52.81;100015.05;436028;1254;139391;-59
2023/05/05 04:13:15;;;;;;;10.40;6.90;;;;;;;8.90;53.01;100009.40;436284;1251;138549;-59
2023/05/05 04:23:21;;;;;;;9.20;7.20;;;;;;;9.09;53.17;100010.77;436054;1250;140500;-59
2023/05/05 04:33:26;;;;;;;10.30;7.20;;;;;;;9.56;52.74;100013.55;436071;1253;139548;-59
2023/05/05 04:43:32;;;;;;;11.30;7.90;;;;;;;10.41;51.91;100019.11;436466;1254;140436;-60
2023/05/05 04:53:38;;;;;;;8.80;7.50;;;;;;;11.32;50.84;100028.27;436752;1251;139458;-61
2023/05/05 05:03:44;;;;;;;9.30;5.60;;;;;;;12.24;49.64;100037.05;436017;1254;139652;-60
2023/05/05 05:13:49;;;;;;;10.20;6.00;;;;;;;13.19;48.26;100046.20;435990;1252;140107;-60
2023/05/05 05:23:55;;;;;;;10.80;7.70;;;;;;;14.30;46.65;100052.73;436502;1254;139522;-59
2023/05/05 05:34:01;;;;;;;11.00;7.40;;;;;;;15.22;44.86;100049.04;436621;1254;139504;-60
2023/05/05 05:44:06;;;;;;;12.10;7.00;;;;;;;15.46;43.66;100056.02;436727;1250;138883;-61
2023/05/05 05:54:12;;;;;;;11.20;7.40;;;;;;;14.91;43.54;100062.44;436696;1251;139723;-60
2023/05/05 06:04:18;;;;;;;12.90;8.30;;;;;;;14.88;43.44;100067.09;436706;1252;139203;-59
2023/05/05 06:14:23;;;;;;;9.90;7.80;;;;;;;15.46;43.10;100065.25;436764;1254;140855;-59
2023/05/05 06:24:30;;;;;;;10.70;7.00;;;;;;;15.96;42.21;100064.92;436653;1251;138609;-61
2023/05/05 06:34:36;;;;;;;6.60;5.60;;;;;;;17.48;41.14;100060.80;436310;1251;140264;-61
2023/05/05 06:44:42;;;;;;;7.20;3.90;;;;;;;21.60;37.23;100065.91;436503;1254;139624;-59
2023/05/05 06:54:47;;;;;;;9.80;5.00;;;;;;;23.06;34.15;100073.89;436631;1251;138968;-60
2023/05/05 07:04:54;;;;;;;9.00;5.20;;;;;;;23.91;32.22;100077.30;436766;1251;138640;-61
2023/05/05 07:15:00;;;;;;;5.90;3.70;;;;;;;25.62;30.51;100070.26;436535;1251;139145;-60
2023/05/05 07:25:20;;;;;;;3.70;2.80;;;;;;;28.45;27.84;100066.21;436751;1251;140321;-59
2023/05/05 07:35:26;;;;;;;5.40;3.00;;;;;;;31.22;25.31;100062.84;436695;1254;139226;-61
2023/05/05 07:45:32;;;;;;;4.80;2.70;;;;;;;32.81;22.99;100054.61;436689;1251;139153;-60
2023/05/05 07:55:38;;;;;;;4.20;2.90;;;;;;;31.25;22.61;100048.40;436767;1251;139196;-59
2023/05/05 08:05:44;;;;;;;2.70;2.10;;;;;;;31.51;21.88;100045.95;436628;1251;140126;-60
2023/05/05 08:15:49;;;;;;;4.00;2.90;;;;;;;29.43;21.74;100048.46;436472;1251;138952;-59
2023/05/05 08:25:55;;;;;;;4.10;2.20;;;;;;;28.06;22.29;100048.20;436515;1251;140205;-59
2023/05/05 08:36:01;;;;;;;3.00;2.60;;;;;;;27.65;22.42;100048.78;436289;1251;139001;-59
2023/05/05 08:46:10;;;;;;;3.70;2.60;;;;;;;27.17;22.36;100043.72;436328;1254;138626;-59
2023/05/05 08:56:16;;;;;;;7.30;3.30;;;;;;;26.07;22.82;100041.96;437012;1250;143890;-59
2023/05/05 09:06:25;;;;;;;4.30;2.90;;;;;;;25.26;23.41;100029.17;436541;1251;140248;-60
2023/05/05 09:16:31;;;;;;;7.40;3.90;;;;;;;23.90;24.05;100029.45;436593;1250;139219;-59
2023/05/05 09:26:38;;;;;;;4.50;2.70;;;;;;;23.25;24.84;100037.71;436643;1251;139093;-58
2023/05/05 09:36:46;;;;;;;3.90;3.30;;;;;;;23.29;25.23;100032.83;436086;1251;139056;-59
2023/05/05 09:46:54;;;;;;;4.80;2.80;;;;;;;22.62;25.19;100035.05;437181;1254;139925;-60
2023/05/05 09:57:00;;;;;;;5.10;3.10;;;;;;;21.35;26.29;100036.18;436983;1251;140206;-60
2023/05/05 10:07:06;;;;;;;4.60;2.90;;;;;;;20.91;26.76;100037.02;436993;1254;138743;-59
2023/05/05 10:17:12;;;;;;;4.10;2.90;;;;;;;20.06;27.39;100033.02;436601;1250;138668;-59
2023/05/05 10:27:22;;;;;;;3.90;3.30;;;;;;;20.05;27.87;100028.19;437073;1254;139124;-60
2023/05/05 10:37:29;;;;;;;3.80;3.50;;;;;;;19.80;27.86;100019.30;436316;1251;138934;-59
2023/05/05 10:47:36;;;;;;;4.40;3.50;;;;;;;19.55;28.23;100010.14;436417;1250;139472;-60
2023/05/05 10:57:44;;;;;;;4.90;2.80;;;;;;;19.78;28.31;100000.13;436468;1250;138969;-60
2023/05/05 11:07:51;;;;;;;6.90;3.50;;;;;;;20.33;28.03;99989.73;436927;1251;138737;-60
2023/05/05 11:17:58;;;;;;;5.80;2.90;;;;;;;21.03;27.37;99979.98;437197;1253;140773;-59
2023/05/05 11:28:08;;;;;;;3.30;3.00;;;;;;;21.15;27.31;99977.80;436405;1250;138895;-60
2023/05/05 11:38:15;;;;;;;6.00;3.10;;;;;;;21.62;27.20;99972.60;437363;1253;139056;-60
2023/05/05 11:48:27;;;;;;;3.70;2.90;;;;;;;22.02;26.76;99972.09;436710;1251;139631;-59
2023/05/05 11:58:33;;;;;;;3.40;2.70;;;;;;;21.88;26.68;99968.40;436662;1251;140671;-60
2023/05/05 12:08:39;;;;;;;3.50;2.60;;;;;;;21.11;27.19;99975.73;436513;1254;138677;-59
2023/05/05 12:18:45;;;;;;;4.90;3.40;;;;;;;20.67;27.84;99968.59;436564;1254;140613;-60
2023/05/05 12:28:50;;;;;;;6.30;2.10;;;;;;;20.76;27.79;99965.94;436260;1251;139999;-60
2023/05/05 12:38:56;;;;;;;4.10;3.00;;;;;;;20.88;27.69;99962.48;436521;1254;139869;-60
2023/05/05 12:49:04;;;;;;;6.50;3.10;;;;;;;20.89;27.72;99962.02;436744;1251;139074;-59
2023/05/05 12:59:11;;;;;;;6.50;3.00;;;;;;;20.74;28.65;99960.77;436714;1254;139191;-60
2023/05/05 13:09:29;;;;;;;8.00;2.90;;;;;;;20.27;29.13;99952.27;436764;1250;138992;-60
2023/05/05 13:19:40;;;;;;;6.10;3.90;;;;;;;19.76;29.99;99944.76;437225;1251;138828;-60
2023/05/05 13:29:46;;;;;;;5.20;3.60;;;;;;;19.01;31.36;99942.27;437145;1251;139520;-59
2023/05/05 13:39:54;;;;;;;12.80;4.70;;;;;;;18.59;32.31;99937.60;436420;1251;138834;-62
2023/05/05 13:50:00;;;;;;;4.60;3.80;;;;;;;18.66;32.45;99945.96;436516;1251;139287;-62
2023/05/05 14:00:08;;;;;;;6.60;4.10;;;;;;;18.94;32.76;99933.68;436441;1251;139301;-62
2023/05/05 14:10:14;;;;;;;8.30;3.80;;;;;;;18.86;33.14;99929.08;436342;1251;139502;-62
2023/05/05 14:20:20;;;;;;;4.40;3.80;;;;;;;18.46;33.68;99929.90;435899;1250;138511;-62
2023/05/05 14:30:26;;;;;;;6.90;3.40;;;;;;;17.84;34.11;99936.48;435842;1251;139218;-60
2023/05/05 14:40:31;;;;;;;4.20;3.50;;;;;;;17.44;34.75;99941.40;435668;1251;139748;-62
2023/05/05 14:50:38;;;;;;;4.20;3.20;;;;;;;17.37;35.00;99946.23;436396;1250;138566;-61
2023/05/05 15:00:44;;;;;;;7.00;4.00;;;;;;;17.42;34.77;99939.64;436171;1251;138446;-62
2023/05/05 15:10:50;;;;;;;8.50;3.20;;;;;;;17.48;34.96;99941.78;435832;1254;139082;-61
2023/05/05 15:20:55;;;;;;;2.30;2.00;;;;;;;17.26;36.32;99943.13;435911;1251;138966;-61
2023/05/05 15:31:01;;;;;;;11.20;4.20;;;;;;;17.10;36.98;99945.96;436654;1254;138836;-62
2023/05/05 15:41:08;;;;;;;4.30;2.80;;;;;;;16.75;37.64;99951.29;436505;1254;139108;-61
2023/05/05 15:51:14;;;;;;;4.00;2.20;;;;;;;16.36;38.60;99943.39;436810;1251;140039;-62
2023/05/05 16:01:19;;;;;;;10.60;3.60;;;;;;;15.93;39.50;99951.66;436885;1251;138423;-61
2023/05/05 16:11:25;;;;;;;6.40;2.80;;;;;;;15.49;40.26;99946.59;436445;1254;139983;-62
2023/05/05 16:21:32;;;;;;;8.30;4.40;;;;;;;15.24;41.36;99953.98;436606;1254;140379;-62
2023/05/05 16:31:38;;;;;;;15.30;3.90;;;;;;;15.00;41.93;99956.41;436762;1250;138639;-62
2023/05/05 16:41:43;;;;;;;10.00;2.80;;;;;;;14.68;42.28;99959.77;436403;1254;138658;-62
2023/05/05 16:51:50;;;;;;;7.20;3.10;;;;;;;14.40;43.16;99968.89;436338;1251;140051;-62
2023/05/05 17:01:56;;;;;;;9.60;4.40;;;;;;;14.22;43.69;99966.34;436838;1251;139178;-64
2023/05/05 17:12:03;;;;;;;5.30;2.90;;;;;;;14.10;44.45;99969.87;436390;1254;138907;-62
2023/05/05 17:22:08;;;;;;;4.90;3.50;;;;;;;13.95;44.88;99979.23;436821;1251;138920;-63
2023/05/05 17:32:14;;;;;;;8.20;4.30;;;;;;;13.46;45.69;99997.94;436383;1250;140370;-62
2023/05/05 17:42:21;;;;;;;4.70;2.60;;;;;;;12.95;46.51;100002.76;436545;1251;139145;-62
2023/05/05 17:52:27;;;;;;;4.70;3.40;;;;;;;12.52;47.59;100006.63;437061;1255;139859;-61
2023/05/05 18:02:35;;;;;;;2.70;2.30;;;;;;;12.14;48.77;100006.45;436676;1254;140835;-62
2023/05/05 18:12:41;;;;;;;5.80;3.40;;;;;;;11.78;49.36;100004.78;436681;1250;139126;-63
2023/05/05 18:22:47;;;;;;;5.50;3.50;;;;;;;11.52;50.38;100015.34;436360;1251;140109;-63
2023/05/05 18:32:52;;;;;;;3.90;2.80;;;;;;;11.29;50.88;100022.85;436203;1251;140090;-63
2023/05/05 18:42:58;;;;;;;3.80;2.80;;;;;;;11.12;51.65;100046.83;436488;1251;140515;-62
2023/05/05 18:53:04;;;;;;;3.80;3.00;;;;;;;11.00;51.50;100050.15;436257;1254;140235;-61
2023/05/05 19:03:10;;;;;;;4.50;3.10;;;;;;;10.88;51.95;100050.45;436312;1254;140232;-62
2023/05/05 19:13:16;;;;;;;5.60;2.70;;;;;;;10.73;52.38;100048.35;436561;1251;139470;-62
2023/05/05 19:23:21;;;;;;;5.40;2.10;;;;;;;10.61;52.27;100049.89;436854;1251;140244;-63
2023/05/05 19:33:27;;;;;;;3.60;2.50;;;;;;;10.51;52.73;100052.21;436216;1251;140461;-62
2023/05/05 19:43:33;;;;;;;3.60;2.60;;;;;;;10.39;52.88;100050.91;436720;1254;141755;-62
2023/05/05 19:53:41;;;;;;;3.60;2.30;;;;;;;10.31;53.34;100057.13;436711;1251;139713;-61
2023/05/05 20:03:47;;;;;;;8.80;2.90;;;;;;;10.24;54.09;100061.87;437360;1250;139588;-61
2023/05/05 20:13:53;;;;;;;7.20;2.70;;;;;;;10.11;54.07;100059.06;436602;1253;138459;-64
2023/05/05 20:24:00;;;;;;;5.40;3.00;;;;;;;9.92;54.07;100059.60;436873;1251;140410;-61
2023/05/05 20:34:05;;;;;;;7.70;3.20;;;;;;;9.67;54.78;100047.64;436803;1255;139449;-62
2023/05/05 20:44:11;;;;;;;4.60;2.70;;;;;;;9.45;55.35;100042.27;436967;1254;138256;-62
2023/05/05 20:54:17;;;;;;;4.00;2.80;;;;;;;9.30;56.50;100039.39;436647;1256;138703;-62
2023/05/05 21:04:23;;;;;;;5.50;3.50;;;;;;;9.10;56.87;100043.02;436934;1251;139341;-61
2023/05/05 21:14:29;;;;;;;4.60;3.30;;;;;;;8.93;57.80;100042.64;436927;1255;140755;-63
2023/05/05 21:24:34;;;;;;;9.60;3.10;;;;;;;8.76;57.74;100042.40;436424;1250;139428;-62
2023/05/05 21:34:40;;;;;;;5.00;3.80;;;;;;;8.60;58.34;100032.39;436595;1254;140001;-64
2023/05/05 21:44:46;;;;;;;8.10;3.80;;;;;;;8.42;58.86;100032.33;436638;1251;140426;-63
2023/05/05 21:54:52;;;;;;;9.00;4.20;;;;;;;8.24;59.61;100031.41;436416;1256;138241;-64
2023/05/05 22:04:58;;;;;;;4.60;4.20;;;;;;;8.10;60.47;100021.27;436321;1254;139240;-64
2023/05/05 22:15:04;;;;;;;4.60;2.70;;;;;;;7.94;60.84;100015.21;436828;1252;139590;-63
2023/05/05 22:25:11;;;;;;;5.40;4.10;;;;;;;7.76;60.83;100010.27;436562;1251;139031;-64
2023/05/05 22:35:18;;;;;;;6.30;3.10;;;;;;;7.61;61.54;100006.91;436868;1255;140074;-65
2023/05/05 22:45:24;;;;;;;4.30;2.90;;;;;;;7.49;62.04;100011.81;438476;1255;139125;-63
2023/05/05 22:55:30;;;;;;;5.70;2.90;;;;;;;7.40;62.44;100006.45;436477;1254;138888;-64
2023/05/05 23:05:36;;;;;;;4.80;2.90;;;;;;;7.30;62.75;100011.77;436207;1254;139475;-63
2023/05/05 23:15:42;;;;;;;6.20;3.10;;;;;;;7.16;63.03;100003.11;435923;1251;140084;-63
2023/05/05 23:25:48;;;;;;;6.00;3.70;;;;;;;7.10;63.64;99991.88;436773;1251;138947;-64
2023/05/05 23:35:54;;;;;;;6.30;3.20;;;;;;;7.05;64.05;99980.09;436532;1254;138750;-63
2023/05/05 23:45:59;;;;;;;5.20;3.40;;;;;;;6.97;64.27;99971.91;436608;1255;138893;-65
2023/05/05 23:56:06;;;;;;;4.40;3.30;;;;;;;6.94;64.57;99971.52;436650;1254;139440;-64
